createdAt,value
2023-02-03T00:03:38.389Z,98407.34
2023-02-03T00:08:40.456Z,98393.28
2023-02-03T00:13:42.248Z,98392.66
2023-02-03T00:18:44.041Z,98388.47
2023-02-03T00:23:45.856Z,98372.66
2023-02-03T00:28:48.030Z,98363.75
2023-02-03T00:33:58.037Z,98353.19
2023-02-03T00:39:01.083Z,98344.81
2023-02-03T00:44:02.859Z,98335.25
2023-02-03T00:49:05.442Z,98336.09
2023-02-03T00:54:07.388Z,98327.47
2023-02-03T00:59:09.287Z,98321.94
2023-02-03T01:04:11.107Z,98313.97
2023-02-03T01:09:12.966Z,98307.31
2023-02-03T01:14:14.774Z,98288.44
2023-02-03T01:19:17.019Z,98269.09
2023-02-03T01:24:18.809Z,98251.34
2023-02-03T01:29:20.613Z,98245.50
2023-02-03T01:34:24.618Z,98240.22
2023-02-03T01:39:27.370Z,98241.22
2023-02-03T01:44:52.697Z,98236.44
2023-02-03T01:50:15.579Z,98222.75
2023-02-03T01:55:23.584Z,98218.50
2023-02-03T02:00:26.161Z,98213.41
2023-02-03T02:05:39.892Z,98200.41
2023-02-03T02:10:41.786Z,98182.06
2023-02-03T02:16:09.722Z,98207.19
2023-02-03T02:21:36.725Z,98189.22
2023-02-03T02:26:50.515Z,98191.03
2023-02-03T02:31:56.647Z,98182.50
2023-02-03T02:37:08.590Z,98186.34
2023-02-03T02:42:36.799Z,98179.13
2023-02-03T02:47:39.223Z,98175.59
2023-02-03T02:52:44.958Z,98173.13
2023-02-03T02:57:49.314Z,98158.97
2023-02-03T03:02:53.878Z,98161.31
2023-02-03T03:08:02.880Z,98155.00
2023-02-03T03:13:09.983Z,98151.94
2023-02-03T03:18:49.099Z,98155.78
2023-02-03T03:23:54.960Z,98148.66
2023-02-03T03:29:19.447Z,98163.59
2023-02-03T03:34:21.416Z,98156.59
2023-02-03T03:39:31.402Z,98142.56
2023-02-03T03:44:39.763Z,98138.75
2023-02-03T03:49:45.326Z,98147.78
2023-02-03T03:54:49.435Z,98138.59
2023-02-03T03:59:51.693Z,98135.66
2023-02-03T04:04:54.939Z,98122.44
2023-02-03T04:09:56.757Z,98099.13
2023-02-03T04:14:58.544Z,98084.28
2023-02-03T04:20:00.423Z,98072.66
2023-02-03T04:25:02.223Z,98058.59
2023-02-03T04:30:04.946Z,98042.63
2023-02-03T04:35:08.016Z,98043.63
2023-02-03T04:40:10.490Z,98063.72
2023-02-03T04:45:12.922Z,98066.72
2023-02-03T04:50:14.806Z,98065.28
2023-02-03T04:55:16.606Z,98070.13
2023-02-03T05:00:18.675Z,98076.81
2023-02-03T05:05:21.310Z,98046.34
2023-02-03T05:10:23.077Z,98061.63
2023-02-03T05:15:24.968Z,98079.66
2023-02-03T05:20:28.532Z,98052.16
2023-02-03T05:25:31.294Z,98039.56
2023-02-03T05:30:33.187Z,98031.94
2023-02-03T05:35:35.222Z,98010.53
2023-02-03T05:40:55.531Z,98002.13
2023-02-03T05:46:01.280Z,98009.59
2023-02-03T05:51:03.224Z,98020.56
2023-02-03T05:56:05.277Z,98010.13
2023-02-03T06:01:07.092Z,98014.38
2023-02-03T06:06:08.936Z,98024.38
2023-02-03T06:11:11.882Z,98015.59
2023-02-03T06:16:13.740Z,98014.38
2023-02-03T06:21:15.622Z,98003.00
2023-02-03T06:26:17.462Z,97983.09
2023-02-03T06:31:19.374Z,97982.00
2023-02-03T06:36:21.276Z,97981.19
2023-02-03T06:41:27.539Z,97967.19
2023-02-03T06:46:30.522Z,97952.69
2023-02-03T06:51:32.402Z,97954.88
2023-02-03T06:56:34.287Z,97961.25
2023-02-03T07:01:37.208Z,97949.72
2023-02-03T07:06:39.047Z,97945.94
2023-02-03T07:11:40.837Z,97944.47
2023-02-03T07:16:42.643Z,97948.13
2023-02-03T07:21:44.405Z,97924.38
2023-02-03T07:26:46.212Z,97918.00
2023-02-03T07:31:48.177Z,97909.03
2023-02-03T07:36:49.990Z,97907.13
2023-02-03T07:41:51.825Z,97914.44
2023-02-03T07:46:56.126Z,97899.69
2023-02-03T07:51:57.919Z,97903.34
2023-02-03T07:56:59.708Z,97897.91
2023-02-03T08:02:01.632Z,97906.03
2023-02-03T08:07:04.092Z,97898.03
2023-02-03T08:12:06.218Z,97897.91
2023-02-03T08:17:08.022Z,97886.09
2023-02-03T08:22:16.025Z,97868.59
2023-02-03T08:27:20.746Z,97881.63
2023-02-03T08:32:23.203Z,97861.66
2023-02-03T08:37:25.349Z,97865.44
2023-02-03T08:42:27.890Z,97873.59
2023-02-03T08:47:29.746Z,97845.19
2023-02-03T08:52:31.531Z,97867.72
2023-02-03T08:57:36.974Z,97845.69
2023-02-03T09:02:38.771Z,97840.78
2023-02-03T09:07:40.700Z,97846.47
2023-02-03T09:12:42.500Z,97850.78
2023-02-03T09:17:44.340Z,97845.34
2023-02-03T09:22:46.135Z,97814.75
2023-02-03T09:27:48.296Z,97803.84
2023-02-03T09:32:54.531Z,97798.91
2023-02-03T09:37:56.341Z,97785.06
2023-02-03T09:43:10.454Z,97771.84
2023-02-03T09:48:23.024Z,97767.88
2023-02-03T09:53:45.400Z,97765.97
2023-02-03T09:58:47.325Z,97772.75
2023-02-03T10:03:54.251Z,97766.50
2023-02-03T10:08:59.551Z,97754.41
2023-02-03T10:14:22.624Z,97762.16
2023-02-03T10:19:36.763Z,97756.53
2023-02-03T10:24:43.811Z,97744.00
2023-02-03T10:29:51.254Z,97731.75
2023-02-03T10:34:53.261Z,97721.81
2023-02-03T10:39:57.419Z,97732.13
2023-02-03T10:44:59.894Z,97719.56
2023-02-03T10:50:16.800Z,97695.22
2023-02-03T10:55:22.878Z,97664.97
2023-02-03T11:00:30.863Z,97666.81
2023-02-03T11:05:32.790Z,97658.28
2023-02-03T11:10:40.775Z,97661.81
2023-02-03T11:16:02.510Z,97664.38
2023-02-03T11:21:14.322Z,97669.97
2023-02-03T11:26:20.912Z,97668.22
2023-02-03T11:31:28.399Z,97662.78
2023-02-03T11:36:32.690Z,97658.56
2023-02-03T11:41:38.441Z,97652.59
2023-02-03T11:46:40.776Z,97653.53
2023-02-03T11:51:50.793Z,97634.84
2023-02-03T11:57:01.753Z,97646.13
2023-02-03T12:02:28.168Z,97634.69
2023-02-03T12:08:25.575Z,97607.50
2023-02-03T12:13:44.281Z,97624.84
2023-02-03T12:18:49.114Z,97602.63
2023-02-03T12:24:09.219Z,97601.47
2023-02-03T12:29:23.988Z,97607.78
2023-02-03T12:34:36.573Z,97603.28
2023-02-03T12:39:45.714Z,97604.78
2023-02-03T12:44:54.191Z,97605.72
2023-02-03T12:50:40.819Z,97608.97
2023-02-03T12:55:55.871Z,97580.44
2023-02-03T13:01:04.020Z,97556.91
2023-02-03T13:06:20.527Z,97577.09
2023-02-03T13:11:44.079Z,97563.59
2023-02-03T13:16:53.448Z,97563.66
2023-02-03T13:21:55.433Z,97569.63
2023-02-03T13:27:13.386Z,97579.50
2023-02-03T13:32:34.583Z,97605.72
2023-02-03T13:38:09.661Z,97624.09
2023-02-03T13:43:28.396Z,97629.31
2023-02-03T13:48:38.936Z,97611.59
2023-02-03T13:53:43.870Z,97630.19
2023-02-03T13:59:03.435Z,97632.78
2023-02-03T14:04:09.155Z,97618.28
2023-02-03T14:09:31.421Z,97631.53
2023-02-03T14:14:36.337Z,97635.59
2023-02-03T14:19:50.308Z,97635.44
2023-02-03T14:24:52.873Z,97639.88
2023-02-03T14:30:07.753Z,97639.06
2023-02-03T14:35:18.357Z,97653.97
2023-02-03T14:40:45.415Z,97668.66
2023-02-03T14:45:59.589Z,97670.91
2023-02-03T14:51:20.238Z,97674.34
2023-02-03T14:57:08.154Z,97678.94
2023-02-03T15:02:17.262Z,97692.03
2023-02-03T15:07:44.137Z,97694.09
2023-02-03T15:12:51.724Z,97700.75
2023-02-03T15:17:56.305Z,97705.03
2023-02-03T15:22:58.411Z,97713.47
2023-02-03T15:28:19.401Z,97737.41
2023-02-03T15:33:22.691Z,97733.06
2023-02-03T15:38:39.273Z,97747.81
2023-02-03T15:43:43.939Z,97766.19
2023-02-03T15:48:54.992Z,97770.09
2023-02-03T15:54:13.679Z,97775.84
2023-02-03T15:59:26.979Z,97777.06
2023-02-03T16:04:31.059Z,97774.38
2023-02-03T16:09:39.082Z,97792.44
2023-02-03T16:14:42.185Z,97796.78
2023-02-03T16:19:51.335Z,97795.50
2023-02-03T16:24:53.264Z,97806.34
2023-02-03T16:30:22.909Z,97800.75
2023-02-03T16:35:43.846Z,97813.00
2023-02-03T16:41:06.160Z,97808.34
2023-02-03T16:46:30.482Z,97806.44
2023-02-03T16:51:42.476Z,97817.13
2023-02-03T16:56:44.431Z,97824.59
2023-02-03T17:01:46.335Z,97833.84
2023-02-03T17:06:51.252Z,97829.75
2023-02-03T17:11:53.089Z,97841.28
2023-02-03T17:16:55.287Z,97825.50
2023-02-03T17:21:57.089Z,97832.03
2023-02-03T17:26:59.146Z,97846.06
2023-02-03T17:32:01.061Z,97834.81
2023-02-03T17:37:03.043Z,97838.50
2023-02-03T17:58:03.968Z,97886.91
2023-02-03T18:03:05.817Z,97895.56
2023-02-03T18:08:16.189Z,97902.09
2023-02-03T18:13:18.425Z,97927.09
2023-02-03T18:18:21.443Z,97936.66
2023-02-03T18:23:23.302Z,97934.97
2023-02-03T18:28:25.762Z,97941.78
2023-02-03T18:33:28.787Z,97967.44
2023-02-03T18:38:33.349Z,97969.22
2023-02-03T18:43:35.755Z,97974.38
2023-02-03T18:48:37.682Z,97989.44
2023-02-03T18:53:39.809Z,97995.69
2023-02-03T18:58:41.792Z,98004.53
2023-02-03T19:03:43.624Z,97992.88
2023-02-03T19:08:46.214Z,98007.66
2023-02-03T19:13:48.109Z,98008.06
2023-02-03T19:18:50.003Z,98009.81
2023-02-03T19:23:51.852Z,98024.78
2023-02-03T19:28:54.589Z,98028.44
2023-02-03T19:34:02.592Z,98023.13
2023-02-03T19:39:04.399Z,98034.97
2023-02-03T19:44:07.048Z,98044.47
2023-02-03T19:49:15.147Z,98038.50
2023-02-03T19:54:17.045Z,98043.25
2023-02-03T19:59:18.814Z,98039.56
2023-02-03T20:04:20.760Z,98032.78
2023-02-03T20:09:22.910Z,98036.72
2023-02-03T20:14:24.698Z,98037.69
2023-02-03T20:19:26.503Z,98047.03
2023-02-03T20:24:28.367Z,98051.50
2023-02-03T20:29:30.228Z,98056.09
2023-02-03T20:34:32.108Z,98057.69
2023-02-03T20:39:34.369Z,98055.50
2023-02-03T20:44:36.138Z,98052.53
2023-02-03T20:49:37.918Z,98073.47
2023-02-03T20:54:40.407Z,98066.19
2023-02-03T20:59:44.559Z,98081.19
2023-02-03T21:04:58.460Z,98080.06
2023-02-03T21:10:00.702Z,98058.84
2023-02-03T21:15:03.008Z,98069.91
2023-02-03T21:20:24.576Z,98070.41
2023-02-03T21:25:33.065Z,98057.41
2023-02-03T21:30:35.261Z,98063.06
2023-02-03T21:35:37.903Z,98073.59
2023-02-03T21:40:39.700Z,98069.38
2023-02-03T21:45:42.699Z,98068.13
2023-02-03T21:50:44.505Z,98082.16
2023-02-03T21:55:46.342Z,98095.25
2023-02-03T22:00:49.121Z,98092.69
2023-02-03T22:05:50.986Z,98093.63
2023-02-03T22:10:52.748Z,98095.03
2023-02-03T22:15:54.538Z,98115.47
2023-02-03T22:20:56.369Z,98117.13
2023-02-03T22:25:58.265Z,98128.31
2023-02-03T22:31:00.417Z,98148.53
2023-02-03T22:36:03.605Z,98150.66
2023-02-03T22:41:06.345Z,98171.13
2023-02-03T22:46:08.568Z,98165.88
2023-02-03T22:51:10.468Z,98183.41
2023-02-03T22:56:12.343Z,98193.00
2023-02-03T23:01:14.177Z,98190.34
2023-02-03T23:06:15.977Z,98196.41
2023-02-03T23:11:17.921Z,98195.47
2023-02-03T23:16:19.788Z,98205.75
2023-02-03T23:21:21.656Z,98206.69
2023-02-03T23:26:23.451Z,98217.31
2023-02-03T23:31:25.633Z,98218.00
2023-02-03T23:36:27.507Z,98223.50
2023-02-03T23:41:29.277Z,98239.84
2023-02-03T23:46:31.130Z,98238.22
2023-02-03T23:51:32.933Z,98231.22
2023-02-03T23:56:34.726Z,98214.84
